Time;durP1;ratioP1;P1;durP2;ratioP2;P2;SDS_P1;SDS_P2;PMS_P1;PMS_P2;Temp;Humidity;BMP_temperature;BMP_pressure;BME280_temperature;BME280_humidity;BME280_pressure;Samples;Min_cycle;Max_cycle;Signal;HPM_P1;HPM_P2
2024/04/04 08:00:34;;;;;;;;;;;;;;;5.36;100.00;99058.75;5144688;23;1814053;-81
2024/04/04 08:02:59;;;;;;;;;;;;;;;5.33;100.00;99064.09;4915790;29;19923;-84
2024/04/04 08:05:25;;;;;;;;;;;;;;;5.34;100.00;99068.47;4899102;29;19929;-83
2024/04/04 08:07:50;;;;;;;;;;;;;;;5.31;100.00;99066.78;4898243;29;20153;-81
2024/04/04 08:10:17;;;;;;;;;;;;;;;5.30;100.00;99072.09;4898579;29;20290;-81
2024/04/04 08:12:43;;;;;;;;;;;;;;;5.33;100.00;99088.63;4915725;29;20319;-80
2024/04/04 08:15:12;;;;;;;;;;;;;;;5.24;100.00;99088.94;4914490;29;19983;-80
2024/04/04 08:17:40;;;;;;;;;;;;;;;5.27;100.00;99087.06;4915417;29;19931;-81
2024/04/04 08:20:08;;;;;;;;;;;;;;;5.18;100.00;99089.97;4897980;29;19927;-81
2024/04/04 08:22:33;;;;;;;;;;;;;;;5.26;100.00;99095.84;4915964;29;20298;-81
2024/04/04 08:24:58;;;;;;;;;;;;;;;5.20;100.00;99089.91;4898806;29;20013;-87
2024/04/04 08:27:25;;;;;;;;;;;;;;;5.28;100.00;99087.91;4915713;29;19919;-83
2024/04/04 08:29:50;;;;;;;;;;;;;;;5.33;100.00;99090.38;4914548;29;20405;-80
2024/04/04 08:32:16;;;;;;;;;;;;;;;5.25;100.00;99099.38;4915801;29;19919;-81
2024/04/04 08:34:42;;;;;;;;;;;;;;;5.35;100.00;99104.34;4898536;29;19975;-81
2024/04/04 08:37:07;;;;;;;;;;;;;;;5.45;100.00;99108.38;4898543;29;19970;-81
2024/04/04 08:39:32;;;;;;;;;;;;;;;5.28;100.00;99099.28;4898572;29;19919;-81
2024/04/04 08:41:57;;;;;;;;;;;;;;;5.21;100.00;99116.13;4898679;29;19923;-81
2024/04/04 08:44:23;;;;;;;;;;;;;;;5.23;100.00;99110.84;4914317;29;19923;-81
2024/04/04 08:46:48;;;;;;;;;;;;;;;5.34;100.00;99107.88;4898404;29;19978;-81
2024/04/04 08:49:16;;;;;;;;;;;;;;;5.34;100.00;99110.50;4915394;29;20018;-81
2024/04/04 08:51:41;;;;;;;;;;;;;;;5.21;100.00;99100.38;4915550;29;19927;-81
2024/04/04 08:54:07;;;;;;;;;;;;;;;5.30;100.00;99095.72;4897554;29;19924;-81
2024/04/04 08:56:32;;;;;;;;;;;;;;;5.27;100.00;99100.19;4898459;29;19919;-82
2024/04/04 08:58:58;;;;;;;;;;;;;;;5.24;100.00;99092.41;4914102;29;19923;-81
2024/04/04 09:01:23;;;;;;;;;;;;;;;5.13;100.00;99086.63;4898209;29;19962;-82
2024/04/04 09:03:48;;;;;;;;;;;;;;;5.20;100.00;99093.44;4915488;29;20283;-82
2024/04/04 09:06:17;;;;;;;;;;;;;;;5.19;100.00;99091.69;4915259;29;19919;-82
2024/04/04 09:08:42;;;;;;;;;;;;;;;5.24;100.00;99088.94;4898336;29;19922;-81
2024/04/04 09:11:08;;;;;;;;;;;;;;;5.17;100.00;99090.00;4915331;29;19925;-81
2024/04/04 09:13:34;;;;;;;;;;;;;;;5.22;100.00;99091.59;4898078;29;19934;-81
2024/04/04 09:15:59;;;;;;;;;;;;;;;5.24;100.00;99084.53;4914203;29;19993;-82
2024/04/04 09:18:25;;;;;;;;;;;;;;;5.14;100.00;99080.47;4915274;29;20442;-81
2024/04/04 09:20:50;;;;;;;;;;;;;;;5.20;100.00;99090.81;4918169;29;19929;-81
2024/04/04 09:23:16;;;;;;;;;;;;;;;5.16;100.00;99088.31;4918235;29;19919;-81
2024/04/04 09:25:42;;;;;;;;;;;;;;;5.05;100.00;99086.88;4918615;29;19962;-81
2024/04/04 09:28:12;;;;;;;;;;;;;;;5.19;100.00;99088.22;4918486;29;19964;-81
2024/04/04 09:30:38;;;;;;;;;;;;;;;5.07;100.00;99079.81;4900363;29;19969;-82
2024/04/04 09:33:06;;;;;;;;;;;;;;;5.08;100.00;99080.69;4918303;29;20396;-85
2024/04/04 09:35:32;;;;;;;;;;;;;;;5.08;100.00;99081.53;4900610;29;20009;-82
2024/04/04 09:37:58;;;;;;;;;;;;;;;5.01;100.00;99085.25;4901121;29;19919;-81
2024/04/04 09:40:24;;;;;;;;;;;;;;;5.16;100.00;99090.94;4901155;29;19946;-82
2024/04/04 09:42:50;;;;;;;;;;;;;;;5.15;100.00;99079.56;4918299;29;20009;-84
2024/04/04 09:45:15;;;;;;;;;;;;;;;5.18;100.00;99079.47;4916870;29;19923;-81
2024/04/04 09:47:42;;;;;;;;;;;;;;;5.21;100.00;99071.47;4917395;29;19923;-81
2024/04/04 09:50:09;;;;;;;;;;;;;;;5.32;100.00;99065.88;4918309;29;20319;-81
2024/04/04 09:52:36;;;;;;;;;;;;;;;5.32;100.00;99072.91;4900909;29;20489;-81
2024/04/04 09:55:01;;;;;;;;;;;;;;;5.35;100.00;99071.03;4917998;29;20414;-81
2024/04/04 09:57:27;;;;;;;;;;;;;;;5.28;100.00;99069.50;4917927;29;19951;-81
2024/04/04 10:00:22;;;;;;;;;;;;;;;5.27;100.00;99068.66;4916592;29;19958;-83
2024/04/04 10:02:48;;;;;;;;;;;;;;;5.13;100.00;99080.53;4901611;29;20010;-81
2024/04/04 10:05:15;;;;;;;;;;;;;;;5.16;100.00;99080.44;4900879;29;20046;-84
2024/04/04 10:07:40;;;;;;;;;;;;;;;5.15;100.00;99070.81;4917766;29;19923;-85
2024/04/04 10:10:13;;;;;;;;;;;;;;;5.00;100.00;99072.19;4900883;29;20290;-91
2024/04/04 10:12:48;;;;;;;;;;;;;;;5.13;100.00;99078.75;4900412;29;19930;-87
2024/04/04 10:15:17;;;;;;;;;;;;;;;5.22;100.00;99083.72;4915393;29;19919;-86
2024/04/04 10:17:52;;;;;;;;;;;;;;;5.13;100.00;99073.50;4917605;29;20006;-86
2024/04/04 10:20:20;;;;;;;;;;;;;;;5.17;100.00;99077.75;4917208;29;20382;-82
2024/04/04 10:22:45;;;;;;;;;;;;;;;5.18;100.00;99076.84;4916871;29;19990;-82
2024/04/04 10:25:10;;;;;;;;;;;;;;;5.14;100.00;99069.09;4917360;29;19923;-82
2024/04/04 10:27:36;;;;;;;;;;;;;;;5.20;100.00;99067.16;4917452;29;20405;-85
2024/04/04 10:30:03;;;;;;;;;;;;;;;5.20;100.00;99056.66;4898365;29;19930;-85
2024/04/04 10:32:28;;;;;;;;;;;;;;;5.37;100.00;99069.22;4900225;29;20318;-82
2024/04/04 10:35:01;;;;;;;;;;;;;;;5.28;100.00;99054.63;4917104;29;19930;-84
2024/04/04 10:37:26;;;;;;;;;;;;;;;5.25;100.00;99067.84;4916620;29;19919;-87
2024/04/04 10:39:51;;;;;;;;;;;;;;;5.37;100.00;99113.03;4900246;29;20378;-87
2024/04/04 10:42:17;;;;;;;;;;;;;;;5.25;100.00;99125.66;4917164;29;19971;-89
2024/04/04 10:44:42;;;;;;;;;;;;;;;5.34;100.00;99124.47;4915662;29;19927;-86
2024/04/04 10:47:08;;;;;;;;;;;;;;;5.17;100.00;99119.78;4917102;29;20335;-82
2024/04/04 10:49:34;;;;;;;;;;;;;;;5.34;100.00;99119.22;4916854;29;19971;-82
2024/04/04 10:52:03;;;;;;;;;;;;;;;5.30;100.00;99100.97;4916949;29;20397;-83
2024/04/04 10:54:29;;;;;;;;;;;;;;;5.34;100.00;99123.63;4916465;29;19923;-83
2024/04/04 10:56:54;;;;;;;;;;;;;;;5.43;100.00;99118.09;4916678;29;20401;-82
2024/04/04 10:59:20;;;;;;;;;;;;;;;5.17;100.00;99111.91;4915525;29;19923;-81
2024/04/04 11:02:07;;;;;;;;;;;;;;;5.23;100.00;99114.34;4916704;29;19930;-89
2024/04/04 11:04:32;;;;;;;;;;;;;;;5.27;100.00;99118.56;4899944;29;20005;-90
2024/04/04 11:06:57;;;;;;;;;;;;;;;5.22;100.00;99120.50;4917050;29;20013;-82
2024/04/04 11:09:25;;;;;;;;;;;;;;;5.26;100.00;99122.13;4916579;29;19926;-82
2024/04/04 11:11:51;;;;;;;;;;;;;;;5.16;100.00;99120.69;4916508;29;19970;-82
2024/04/04 11:14:20;;;;;;;;;;;;;;;5.20;100.00;99124.94;4915309;29;20025;-82
2024/04/04 11:16:46;;;;;;;;;;;;;;;5.34;100.00;99119.22;4916612;29;19920;-82
2024/04/04 11:19:11;;;;;;;;;;;;;;;5.27;100.00;99117.72;4916558;29;19923;-82
2024/04/04 11:21:37;;;;;;;;;;;;;;;5.26;100.00;99121.25;4916468;29;19923;-84
2024/04/04 11:24:02;;;;;;;;;;;;;;;5.41;100.00;99119.91;4899568;29;20445;-93
2024/04/04 11:26:33;;;;;;;;;;;;;;;5.34;100.00;99121.84;4899296;29;20025;-88
2024/04/04 11:28:58;;;;;;;;;;;;;;;5.23;100.00;99122.22;4897178;29;19919;-86
2024/04/04 11:31:24;;;;;;;;;;;;;;;5.57;100.00;99117.66;4916341;29;19930;-82
2024/04/04 11:33:52;;;;;;;;;;;;;;;5.41;100.00;99109.41;4916313;29;19930;-87
2024/04/04 11:36:18;;;;;;;;;;;;;;;5.22;100.00;99120.50;4899024;29;20279;-88
2024/04/04 11:38:43;;;;;;;;;;;;;;;5.28;100.00;99122.94;4916124;29;19933;-89
2024/04/04 11:41:11;;;;;;;;;;;;;;;5.37;100.00;99119.13;4916012;29;19919;-88
2024/04/04 11:43:37;;;;;;;;;;;;;;;5.14;100.00;99112.00;4915465;29;19927;-83
2024/04/04 11:46:11;;;;;;;;;;;;;;;5.14;100.00;99125.13;4914908;29;20002;-82
2024/04/04 11:48:37;;;;;;;;;;;;;;;5.16;100.00;99115.44;4916008;29;19983;-82
2024/04/04 11:51:02;;;;;;;;;;;;;;;5.09;100.00;99124.41;4916210;29;20395;-81
2024/04/04 11:53:27;;;;;;;;;;;;;;;4.99;100.00;99129.06;4915798;29;19919;-85
2024/04/04 11:55:54;;;;;;;;;;;;;;;5.07;100.00;99136.72;4916084;29;19930;-86
2024/04/04 11:58:20;;;;;;;;;;;;;;;5.04;100.00;99144.69;4915991;29;19971;-89
2024/04/04 12:00:45;;;;;;;;;;;;;;;5.09;100.00;99154.16;4914419;29;19931;-87
2024/04/04 12:03:10;;;;;;;;;;;;;;;5.12;100.00;99150.56;4899032;29;19923;-86
2024/04/04 12:05:37;;;;;;;;;;;;;;;5.24;100.00;99160.69;4915852;29;19927;-87
2024/04/04 12:08:02;;;;;;;;;;;;;;;5.26;100.00;99158.91;4915133;29;20009;-82
2024/04/04 12:10:28;;;;;;;;;;;;;;;5.30;100.00;99158.78;4915621;29;20339;-82
2024/04/04 12:12:53;;;;;;;;;;;;;;;5.23;100.00;99164.25;4915772;29;19975;-85
2024/04/04 12:15:19;;;;;;;;;;;;;;;5.25;100.00;99172.09;4914424;29;19919;-86
2024/04/04 12:17:47;;;;;;;;;;;;;;;5.31;100.00;99155.25;4898762;29;20425;-87
2024/04/04 12:20:19;;;;;;;;;;;;;;;5.14;100.00;99158.41;4915074;29;20437;-89
2024/04/04 12:22:48;;;;;;;;;;;;;;;5.16;100.00;99161.84;4914919;29;19919;-85
2024/04/04 12:25:15;;;;;;;;;;;;;;;5.16;100.00;99170.59;4914901;29;19923;-82
2024/04/04 12:27:44;;;;;;;;;;;;;;;5.11;100.00;99180.38;4915893;29;19915;-82
2024/04/04 12:30:09;;;;;;;;;;;;;;;5.05;100.00;99181.41;4897292;29;19930;-84
2024/04/04 12:32:35;;;;;;;;;;;;;;;5.23;100.00;99177.38;4915601;29;19927;-83
2024/04/04 12:35:00;;;;;;;;;;;;;;;5.11;100.00;99174.28;4915539;29;20402;-81
2024/04/04 12:37:26;;;;;;;;;;;;;;;5.17;100.00;99168.81;4915581;29;20481;-83
2024/04/04 12:39:51;;;;;;;;;;;;;;;5.27;100.00;99181.63;4915572;29;20086;-85
2024/04/04 12:42:19;;;;;;;;;;;;;;;5.18;100.00;99181.91;4898810;29;19923;-87
2024/04/04 12:44:48;;;;;;;;;;;;;;;5.26;100.00;99185.16;4896631;29;19920;-90
2024/04/04 12:47:13;;;;;;;;;;;;;;;5.24;100.00;99186.13;4898672;29;19925;-82
2024/04/04 12:49:39;;;;;;;;;;;;;;;4.91;100.00;99167.81;4915299;29;19919;-82
2024/04/04 12:52:04;;;;;;;;;;;;;;;4.99;100.00;99150.06;4915590;29;20018;-82
2024/04/04 12:54:29;;;;;;;;;;;;;;;5.11;100.00;99125.22;4918100;29;20284;-81
2024/04/04 12:56:55;;;;;;;;;;;;;;;5.06;100.00;99125.38;4919193;29;19940;-82
2024/04/04 12:59:23;;;;;;;;;;;;;;;5.18;100.00;99113.59;4917759;29;20092;-89
2024/04/04 13:01:49;;;;;;;;;;;;;;;5.05;100.00;99128.03;4917113;29;19949;-85
2024/04/04 13:04:14;;;;;;;;;;;;;;;5.13;100.00;99120.78;4918819;29;20371;-87
2024/04/04 13:06:43;;;;;;;;;;;;;;;5.04;100.00;99127.19;4918906;29;19999;-85
2024/04/04 13:09:11;;;;;;;;;;;;;;;5.06;100.00;99124.50;4918492;29;19923;-88
2024/04/04 13:11:46;;;;;;;;;;;;;;;5.19;100.00;99130.25;4918214;29;19923;-88
2024/04/04 13:14:11;;;;;;;;;;;;;;;5.05;100.00;99138.53;4896125;29;20450;-86
2024/04/04 13:16:36;;;;;;;;;;;;;;;5.06;100.00;99148.16;4897587;29;19926;-83
2024/04/04 13:19:03;;;;;;;;;;;;;;;5.07;100.00;99145.47;4897428;29;20030;-83
2024/04/04 13:21:28;;;;;;;;;;;;;;;5.12;100.00;99139.19;4881365;29;19987;-84
2024/04/04 13:23:54;;;;;;;;;;;;;;;5.12;100.00;99137.44;4897462;29;20383;-94
2024/04/04 13:26:20;;;;;;;;;;;;;;;5.04;100.00;99148.19;4882237;29;20589;-93
2024/04/04 13:28:45;;;;;;;;;;;;;;;5.11;100.00;99145.38;4897355;29;19923;-85
2024/04/04 13:31:10;;;;;;;;;;;;;;;5.17;100.00;99143.44;4896150;29;19949;-84
2024/04/04 13:33:35;;;;;;;;;;;;;;;5.22;100.00;99146.75;4896950;29;19920;-82
2024/04/04 13:36:00;;;;;;;;;;;;;;;5.16;100.00;99144.31;4897309;29;19919;-86
2024/04/04 13:38:26;;;;;;;;;;;;;;;5.19;100.00;99151.25;4897327;29;19971;-83
2024/04/04 13:40:51;;;;;;;;;;;;;;;5.19;100.00;99146.84;4897065;29;19979;-83
2024/04/04 13:43:16;;;;;;;;;;;;;;;5.14;100.00;99138.25;4897135;29;19920;-82
2024/04/04 13:45:41;;;;;;;;;;;;;;;5.23;100.00;99132.72;4899308;29;20393;-82
2024/04/04 13:48:08;;;;;;;;;;;;;;;5.20;100.00;99134.56;4918147;29;19927;-87
2024/04/04 13:50:33;;;;;;;;;;;;;;;5.13;100.00;99135.69;4901299;29;19993;-83
2024/04/04 13:52:58;;;;;;;;;;;;;;;5.34;100.00;99139.41;4917944;29;19931;-83
2024/04/04 13:55:23;;;;;;;;;;;;;;;5.19;100.00;99141.59;4918067;29;19998;-86
2024/04/04 13:57:50;;;;;;;;;;;;;;;5.27;100.00;99139.59;4917980;29;20018;-88
2024/04/04 14:00:21;;;;;;;;;;;;;;;5.21;100.00;99139.78;4918615;29;19955;-89
2024/04/04 14:02:47;;;;;;;;;;;;;;;5.15;100.00;99139.13;4917422;29;19919;-85
2024/04/04 14:05:12;;;;;;;;;;;;;;;5.19;100.00;99132.88;4917066;29;20363;-83
2024/04/04 14:07:38;;;;;;;;;;;;;;;5.20;100.00;99117.06;4917910;29;20274;-83
2024/04/04 14:10:04;;;;;;;;;;;;;;;5.12;100.00;99119.03;4917778;29;19923;-87
2024/04/04 14:12:30;;;;;;;;;;;;;;;5.24;100.00;99130.94;4917623;29;19942;-87
2024/04/04 14:14:55;;;;;;;;;;;;;;;5.24;100.00;99125.69;4899380;29;20382;-86
2024/04/04 14:17:20;;;;;;;;;;;;;;;5.32;100.00;99125.47;4917626;29;19930;-85
2024/04/04 14:19:45;;;;;;;;;;;;;;;5.25;100.00;99119.56;4917605;29;20286;-82
2024/04/04 14:22:11;;;;;;;;;;;;;;;5.16;100.00;99120.69;4918204;29;19927;-90
2024/04/04 14:24:39;;;;;;;;;;;;;;;5.20;100.00;99124.94;4917433;29;19927;-84
2024/04/04 14:27:04;;;;;;;;;;;;;;;5.24;100.00;99129.16;4917076;29;19923;-84
2024/04/04 14:29:30;;;;;;;;;;;;;;;5.14;100.00;99125.13;4916361;29;20377;-83
2024/04/04 14:31:56;;;;;;;;;;;;;;;5.22;100.00;99131.00;4917235;29;20018;-91
2024/04/04 14:34:21;;;;;;;;;;;;;;;5.20;100.00;99127.56;4918179;29;19930;-83
2024/04/04 14:36:47;;;;;;;;;;;;;;;5.20;100.00;99130.19;4917224;29;20606;-83
2024/04/04 14:39:13;;;;;;;;;;;;;;;5.19;100.00;99132.88;4916612;29;19946;-87
2024/04/04 14:41:38;;;;;;;;;;;;;;;5.32;100.00;99130.72;4917081;29;20018;-82
2024/04/04 14:44:03;;;;;;;;;;;;;;;5.37;100.00;99139.31;4915864;29;20001;-83
2024/04/04 14:46:29;;;;;;;;;;;;;;;5.33;100.00;99128.03;4917155;29;19923;-93
2024/04/04 14:48:54;;;;;;;;;;;;;;;5.38;100.00;99135.78;4917096;29;19923;-83
2024/04/04 14:51:19;;;;;;;;;;;;;;;5.32;100.00;99142.06;4917024;29;19926;-82
2024/04/04 14:53:51;;;;;;;;;;;;;;;5.40;100.00;99141.84;4916867;29;19923;-82
2024/04/04 14:56:17;;;;;;;;;;;;;;;5.28;100.00;99148.31;4916859;29;20272;-82
2024/04/04 14:58:43;;;;;;;;;;;;;;;5.29;100.00;99144.78;4916820;29;19927;-89
2024/04/04 15:01:08;;;;;;;;;;;;;;;5.31;100.00;99142.13;4895486;29;19923;-84
2024/04/04 15:03:38;;;;;;;;;;;;;;;5.30;100.00;99143.00;4897065;29;19975;-82
2024/04/04 15:06:03;;;;;;;;;;;;;;;5.34;100.00;99147.28;4897881;29;19920;-83
2024/04/04 15:08:29;;;;;;;;;;;;;;;5.37;100.00;99140.16;4898194;29;19926;-82
2024/04/04 15:10:54;;;;;;;;;;;;;;;9.64;100.00;99138.81;4896459;29;20018;-84
2024/04/04 15:13:19;;;;;;;;;;;;;;;7.05;100.00;99158.00;4897717;29;19927;-83
2024/04/04 15:15:44;;;;;;;;;;;;;;;6.30;100.00;99156.38;4896389;29;19949;-83
2024/04/04 15:18:10;;;;;;;;;;;;;;;6.03;100.00;99147.69;4897775;29;19930;-84
2024/04/04 15:20:35;;;;;;;;;;;;;;;5.86;100.00;99158.72;4896884;29;19926;-83
2024/04/04 15:23:00;;;;;;;;;;;;;;;5.72;100.00;99150.44;4897455;29;19928;-86
2024/04/04 15:25:28;;;;;;;;;;;;;;;5.66;100.00;99146.22;4897649;29;19983;-82
2024/04/04 15:27:53;;;;;;;;;;;;;;;5.60;100.00;99152.56;4897033;29;19927;-84
2024/04/04 15:30:19;;;;;;;;;;;;;;;5.57;100.00;99147.41;4893554;29;19924;-81
2024/04/04 15:32:44;;;;;;;;;;;;;;;5.59;100.00;99150.84;4896917;29;19926;-84
2024/04/04 15:35:09;;;;;;;;;;;;;;;5.67;100.00;99155.00;4896764;29;19943;-87
2024/04/04 15:37:35;;;;;;;;;;;;;;;5.55;100.00;99132.59;4896117;29;19955;-82
2024/04/04 15:40:00;;;;;;;;;;;;;;;5.49;100.00;99143.28;4896076;29;19920;-85
2024/04/04 15:42:25;;;;;;;;;;;;;;;5.55;100.00;99153.59;4896364;29;20052;-81
2024/04/04 15:44:51;;;;;;;;;;;;;;;5.49;100.00;99162.56;4895795;29;19975;-82
2024/04/04 15:47:16;;;;;;;;;;;;;;;5.46;100.00;99175.81;4896413;29;19920;-81
2024/04/04 15:49:41;;;;;;;;;;;;;;;5.54;100.00;99180.81;4896653;29;19930;-84
2024/04/04 15:52:07;;;;;;;;;;;;;;;5.49;100.00;99178.34;4896819;29;20434;-81
2024/04/04 15:54:32;;;;;;;;;;;;;;;5.44;100.00;99183.72;4896712;29;19926;-83
2024/04/04 15:56:58;;;;;;;;;;;;;;;5.39;100.00;99158.50;4895877;29;19923;-81
2024/04/04 15:59:23;;;;;;;;;;;;;;;5.36;100.00;99155.97;4895046;29;19930;-80
2024/04/04 16:01:55;;;;;;;;;;;;;;;5.32;100.00;99165.72;4895569;29;20014;-82
2024/04/04 16:04:20;;;;;;;;;;;;;;;5.35;100.00;99167.41;4896558;29;19967;-80
2024/04/04 16:06:45;;;;;;;;;;;;;;;5.36;100.00;99169.97;4896833;29;19919;-81
2024/04/04 16:09:10;;;;;;;;;;;;;;;5.32;100.00;99191.13;4895756;29;19931;-80
2024/04/04 16:11:36;;;;;;;;;;;;;;;5.28;100.00;99177.22;4896103;29;20014;-82
2024/04/04 16:14:01;;;;;;;;;;;;;;;5.35;100.00;99162.16;4893271;29;19938;-82
2024/04/04 16:16:26;;;;;;;;;;;;;;;5.34;100.00;99173.56;4894556;29;19959;-82
2024/04/04 16:18:51;;;;;;;;;;;;;;;5.26;100.00;99174.66;4895550;29;20010;-84
2024/04/04 16:21:17;;;;;;;;;;;;;;;5.35;100.00;99177.91;4895729;29;19919;-85
2024/04/04 16:23:42;;;;;;;;;;;;;;;5.35;100.00;99162.16;4895617;29;19927;-81
2024/04/04 16:26:08;;;;;;;;;;;;;;;5.32;100.00;99170.97;4896008;29;19923;-84
2024/04/04 16:28:35;;;;;;;;;;;;;;;5.29;100.00;99168.44;4896952;29;19927;-85
2024/04/04 16:31:00;;;;;;;;;;;;;;;5.28;100.00;99166.72;4898077;29;19919;-82
2024/04/04 16:33:26;;;;;;;;;;;;;;;5.28;100.00;99166.72;4898952;29;19923;-81
2024/04/04 16:35:52;;;;;;;;;;;;;;;5.28;100.00;99174.59;4900320;29;20026;-85
2024/04/04 16:38:17;;;;;;;;;;;;;;;5.23;100.00;99184.38;4900575;29;19926;-81
2024/04/04 16:40:45;;;;;;;;;;;;;;;5.26;100.00;99182.53;4899177;29;19984;-81
2024/04/04 16:43:10;;;;;;;;;;;;;;;5.24;100.00;99188.75;4900455;29;19919;-87
2024/04/04 16:45:36;;;;;;;;;;;;;;;5.27;100.00;99186.03;4897417;29;19938;-83
2024/04/04 16:48:01;;;;;;;;;;;;;;;5.23;100.00;99185.25;4900182;29;19947;-81
2024/04/04 16:50:29;;;;;;;;;;;;;;;5.22;100.00;99187.94;4897935;29;19927;-82
2024/04/04 16:52:54;;;;;;;;;;;;;;;5.21;100.00;99192.31;4899678;29;20026;-82
2024/04/04 16:55:19;;;;;;;;;;;;;;;5.17;100.00;99192.44;4899010;29;20071;-81
2024/04/04 16:57:45;;;;;;;;;;;;;;;5.17;100.00;99185.44;4896663;29;19923;-84
2024/04/04 17:00:10;;;;;;;;;;;;;;;5.21;100.00;99191.47;4899078;29;19931;-81
2024/04/04 17:02:35;;;;;;;;;;;;;;;5.23;100.00;99195.78;4908517;29;19951;-86
2024/04/04 17:05:01;;;;;;;;;;;;;;;5.18;100.00;99197.66;4908279;29;19930;-81
2024/04/04 17:07:26;;;;;;;;;;;;;;;5.16;100.00;99199.47;4909235;29;20279;-81
2024/04/04 17:09:51;;;;;;;;;;;;;;;5.16;100.00;99198.63;4908722;29;19923;-81
2024/04/04 17:12:16;;;;;;;;;;;;;;;5.16;100.00;99204.72;4890628;29;20023;-82
2024/04/04 17:14:42;;;;;;;;;;;;;;;5.21;100.00;99208.06;4908205;29;19923;-86
2024/04/04 17:17:07;;;;;;;;;;;;;;;5.19;100.00;99204.63;4890306;29;19924;-83
2024/04/04 17:19:32;;;;;;;;;;;;;;;5.21;100.00;99205.44;4888804;29;19963;-83
2024/04/04 17:21:58;;;;;;;;;;;;;;;5.19;100.00;99204.63;4909491;29;19967;-87
2024/04/04 17:24:23;;;;;;;;;;;;;;;5.22;100.00;99207.16;4908567;29;19922;-85
2024/04/04 17:26:48;;;;;;;;;;;;;;;5.21;100.00;99208.06;4909366;29;19923;-82
2024/04/04 17:29:14;;;;;;;;;;;;;;;5.23;100.00;99219.41;4907461;29;19919;-82
2024/04/04 17:31:41;;;;;;;;;;;;;;;5.19;100.00;99219.53;4909213;29;20011;-82
2024/04/04 17:34:08;;;;;;;;;;;;;;;5.24;100.00;99222.88;4888583;29;19955;-81
2024/04/04 17:36:33;;;;;;;;;;;;;;;5.19;100.00;99217.78;4891965;29;19929;-82
2024/04/04 17:38:59;;;;;;;;;;;;;;;5.21;100.00;99217.72;4906417;29;20022;-82
2024/04/04 17:41:24;;;;;;;;;;;;;;;5.17;100.00;99216.97;4907917;29;19923;-83
2024/04/04 17:43:50;;;;;;;;;;;;;;;5.16;100.00;99223.13;4874756;29;19930;-86
2024/04/04 17:46:15;;;;;;;;;;;;;;;5.19;100.00;99219.53;4906708;29;19952;-82
2024/04/04 17:48:40;;;;;;;;;;;;;;;5.22;100.00;99230.81;4906090;29;19927;-82
2024/04/04 17:51:06;;;;;;;;;;;;;;;5.20;100.00;99226.50;4907481;29;20002;-82
2024/04/04 17:53:31;;;;;;;;;;;;;;;5.19;100.00;99230.06;4891890;29;19932;-82
2024/04/04 17:55:56;;;;;;;;;;;;;;;5.16;100.00;99231.00;4889147;29;19926;-81
2024/04/04 17:58:21;;;;;;;;;;;;;;;5.15;100.00;99241.53;4908363;29;19927;-82
2024/04/04 18:00:47;;;;;;;;;;;;;;;5.13;100.00;99246.00;4890068;29;19931;-80
2024/04/04 18:03:12;;;;;;;;;;;;;;;5.17;100.00;99242.34;4899010;29;20022;-81
2024/04/04 18:05:37;;;;;;;;;;;;;;;5.19;100.00;99251.91;4898115;29;19919;-82
2024/04/04 18:08:03;;;;;;;;;;;;;;;5.16;100.00;99252.00;4896783;29;20375;-82
2024/04/04 18:10:28;;;;;;;;;;;;;;;5.18;100.00;99254.59;4897610;29;19919;-82
2024/04/04 18:12:53;;;;;;;;;;;;;;;5.09;100.00;99250.47;4896277;29;19931;-83
2024/04/04 18:15:19;;;;;;;;;;;;;;;5.11;100.00;99256.53;4894829;29;19926;-81
2024/04/04 18:17:44;;;;;;;;;;;;;;;5.11;100.00;99259.16;4898317;29;19971;-80
2024/04/04 18:20:09;;;;;;;;;;;;;;;5.12;100.00;99258.22;4898760;29;19920;-80
2024/04/04 18:22:34;;;;;;;;;;;;;;;5.11;100.00;99266.19;4897145;29;19975;-85
2024/04/04 18:25:00;;;;;;;;;;;;;;;5.16;100.00;99266.91;4898556;29;19927;-85
2024/04/04 18:27:25;;;;;;;;;;;;;;;5.13;100.00;99270.47;4897716;29;19955;-82
2024/04/04 18:29:50;;;;;;;;;;;;;;;5.14;100.00;99272.22;4894884;29;19931;-84
2024/04/04 18:32:15;;;;;;;;;;;;;;;5.14;100.00;99280.09;4896994;29;20002;-82
2024/04/04 18:34:41;;;;;;;;;;;;;;;5.19;100.00;99283.44;4897924;29;19927;-83
2024/04/04 18:37:06;;;;;;;;;;;;;;;5.18;100.00;99291.34;4898289;29;19931;-85
2024/04/04 18:39:32;;;;;;;;;;;;;;;5.16;100.00;99291.41;4896248;29;20450;-82
2024/04/04 18:41:57;;;;;;;;;;;;;;;5.14;100.00;99290.59;4896951;29;19923;-85
2024/04/04 18:44:25;;;;;;;;;;;;;;;5.22;100.00;99293.00;4894243;29;19919;-86
2024/04/04 18:46:50;;;;;;;;;;;;;;;5.20;100.00;99303.56;4898199;29;19924;-83
2024/04/04 18:49:16;;;;;;;;;;;;;;;5.25;100.00;99312.16;4898128;29;20295;-81
2024/04/04 18:51:41;;;;;;;;;;;;;;;5.30;100.00;99329.53;4897841;29;20034;-82
2024/04/04 18:54:06;;;;;;;;;;;;;;;5.25;100.00;99334.94;4897041;29;19967;-82
2024/04/04 18:56:32;;;;;;;;;;;;;;;5.21;100.00;99313.13;4897144;29;19979;-83
2024/04/04 18:58:57;;;;;;;;;;;;;;;5.16;100.00;99299.28;4896501;29;20006;-81
2024/04/04 19:01:22;;;;;;;;;;;;;;;5.18;100.00;99307.97;4909714;29;19923;-84
2024/04/04 19:03:47;;;;;;;;;;;;;;;5.21;100.00;99300.00;4916807;29;19965;-83
2024/04/04 19:06:13;;;;;;;;;;;;;;;5.16;100.00;99301.91;4916217;29;19923;-82
2024/04/04 19:08:38;;;;;;;;;;;;;;;5.07;100.00;99316.16;4898852;29;19924;-81
2024/04/04 19:11:03;;;;;;;;;;;;;;;5.11;100.00;99329.22;4915936;29;19930;-82
2024/04/04 19:13:28;;;;;;;;;;;;;;;5.12;100.00;99333.56;4899220;29;19930;-82
2024/04/04 19:15:54;;;;;;;;;;;;;;;5.09;100.00;99331.88;4897429;29;19934;-82
2024/04/04 19:18:19;;;;;;;;;;;;;;;5.16;100.00;99330.81;4898547;29;19930;-81
2024/04/04 19:20:58;;;;;;;;;;;;;;;5.12;100.00;99329.16;4915431;29;20748;-82
2024/04/04 19:23:24;;;;;;;;;;;;;;;5.14;100.00;99332.63;4914862;29;19924;-82
2024/04/04 19:25:56;;;;;;;;;;;;;;;5.12;100.00;99329.16;4899321;29;20089;-81
2024/04/04 19:28:21;;;;;;;;;;;;;;;5.11;100.00;99337.94;4914972;29;19988;-81
2024/04/04 19:30:58;;;;;;;;;;;;;;;5.06;100.00;99329.34;4915156;29;20006;-89
2024/04/04 19:33:25;;;;;;;;;;;;;;;5.08;100.00;99340.66;4915357;29;20363;-82
2024/04/04 19:35:51;;;;;;;;;;;;;;;5.05;100.00;99346.00;4915271;29;19965;-82
2024/04/04 19:38:16;;;;;;;;;;;;;;;5.04;100.00;99339.88;4915457;29;19927;-81
2024/04/04 19:40:42;;;;;;;;;;;;;;;5.07;100.00;99341.56;4915514;29;20395;-82
2024/04/04 19:43:07;;;;;;;;;;;;;;;5.03;100.00;99348.66;4915210;29;19934;-81
2024/04/04 19:45:33;;;;;;;;;;;;;;;5.07;100.00;99346.81;4913250;29;20346;-82
2024/04/04 19:47:58;;;;;;;;;;;;;;;5.08;100.00;99349.38;4910365;29;19942;-81
2024/04/04 19:50:23;;;;;;;;;;;;;;;5.07;100.00;99352.06;4898823;29;19969;-82
2024/04/04 19:52:48;;;;;;;;;;;;;;;5.06;100.00;99351.22;4898458;29;19978;-81
2024/04/04 19:55:14;;;;;;;;;;;;;;;5.03;100.00;99350.44;4915917;29;20374;-81
2024/04/04 19:57:39;;;;;;;;;;;;;;;5.03;100.00;99350.44;4915581;29;20385;-82
2024/04/04 20:00:04;;;;;;;;;;;;;;;5.02;100.00;99354.81;4914372;29;19923;-80
2024/04/04 20:02:31;;;;;;;;;;;;;;;5.00;100.00;99347.91;4915130;29;19931;-80
2024/04/04 20:04:57;;;;;;;;;;;;;;;5.03;100.00;99353.06;4914944;29;19926;-82
2024/04/04 20:07:22;;;;;;;;;;;;;;;5.05;100.00;99353.88;4914996;29;19919;-85
2024/04/04 20:09:48;;;;;;;;;;;;;;;5.05;100.00;99361.75;4915731;29;19946;-81
2024/04/04 20:12:13;;;;;;;;;;;;;;;5.08;100.00;99364.28;4915354;29;19979;-81
2024/04/04 20:14:38;;;;;;;;;;;;;;;5.04;100.00;99363.53;4913569;29;19995;-82
2024/04/04 20:17:03;;;;;;;;;;;;;;;5.06;100.00;99360.84;4915607;29;20345;-81
2024/04/04 20:19:29;;;;;;;;;;;;;;;5.03;100.00;99366.19;4915034;29;19927;-82
2024/04/04 20:21:54;;;;;;;;;;;;;;;5.08;100.00;99366.91;4898556;29;19919;-86
2024/04/04 20:24:20;;;;;;;;;;;;;;;5.05;100.00;99364.38;4915671;29;19923;-86
2024/04/04 20:26:45;;;;;;;;;;;;;;;5.06;100.00;99366.13;4915535;29;19920;-83
2024/04/04 20:29:11;;;;;;;;;;;;;;;5.06;100.00;99368.75;4896018;29;19969;-82
2024/04/04 20:31:36;;;;;;;;;;;;;;;5.03;100.00;99374.06;4914996;29;20330;-81
2024/04/04 20:34:01;;;;;;;;;;;;;;;5.00;100.00;99368.91;4898354;29;20025;-83
2024/04/04 20:36:27;;;;;;;;;;;;;;;4.99;100.00;99375.03;4898542;29;19969;-82
2024/04/04 20:38:52;;;;;;;;;;;;;;;4.98;100.00;99373.31;4915254;29;19919;-82
2024/04/04 20:41:19;;;;;;;;;;;;;;;5.04;100.00;99373.16;4914075;29;19942;-82